Pagrindinis puslapis
METAR-TAF:

METAR-TAF

Oro uostai :

Tivatas, Juodkalnija

platuma: 42-24N, ilguma: 018-44E, Aukštis: 5 m

Dabartinis oras

Ataskaita buvo paskelbta 28 minutes, ne 12:30 UTC
Vėjas 5 kt iš Vakarų/Pietvakarių, svyruoja nuo Pietų ir Vakarų/Šiaurės Vakarų
Temperatūra 21°C
Drėgmė 30%
Slėgis 1030 hPa
Matomumas 10 km arba daugiau
nėra debesų žemiau 1500 m ir nėra kamuolinių lietaus debesų

METAR: LYTV 251230Z 24005KT 180V300 CAVOK 21/03 Q1030 NOSIG

Laikas: 13:58 (12:58 UTC)

Prognozė

Ataskaita buvo paskelbta 1 valandą ir 58 minutes, ne 11:00 UTC
Prognozė galioja nuo 25 metu 12 UTC su 26 metu 12 UTC
Vėjas 6 kt iš Pietvakarių
Matomumas 10 km arba daugiau
nėra debesų žemiau 1500 m ir nėra kamuolinių lietaus debesų

TAF: LYTV 251100Z 2512/2612 23006KT CAVOK TX20/2513Z TN03/2605Z

Orai ataskaitas ir orų prognozės (METAR, TAF).

turimą stotys yra geltonos ir raudonos taškus žemėlapyje.

Perkelti pele per norėdami pamatyti stoties vardą.

Tada spustelėkite, norėdami matyti oro stebėjimo ir prognozės.

Norėdami pakeisti žemėlapį: spustelėkite ant žalios mygtukų su juodo kryžiaus žemyn,; žalią mygtuką su brūkšneliu, jei norite nutolinti; arba žalių rodyklių gretimoms žemėlapius.


METAR-TAF: